Time;durP1;ratioP1;P1;durP2;ratioP2;P2;SDS_P1;SDS_P2;PMS_P1;PMS_P2;Temp;Humidity;BMP_temperature;BMP_pressure;BME280_temperature;BME280_humidity;BME280_pressure;Samples;Min_cycle;Max_cycle;Signal;HPM_P1;HPM_P2
2024/03/17 00:01:42;;;;;;;33.80;22.15;;;;;;;6.37;100.00;133472.09;5067616;28;20041;-69
2024/03/17 00:04:08;;;;;;;34.00;22.63;;;;;;;7.23;100.00;133735.47;5049055;28;20469;-70
2024/03/17 00:06:33;;;;;;;33.60;22.05;;;;;;;6.74;100.00;133662.25;5068004;28;20036;-70
2024/03/17 00:09:00;;;;;;;32.78;22.33;;;;;;;6.76;100.00;133721.72;5067230;28;20044;-71
2024/03/17 00:11:26;;;;;;;33.95;22.33;;;;;;;7.12;100.00;133856.25;5067945;28;20518;-70
2024/03/17 00:13:51;;;;;;;30.48;21.13;;;;;;;7.48;100.00;134005.06;5059708;28;20029;-70
2024/03/17 00:16:18;;;;;;;30.45;21.38;;;;;;;6.77;100.00;133888.31;5066393;28;20027;-70
2024/03/17 00:18:46;;;;;;;34.88;23.38;;;;;;;7.09;100.00;133940.25;5068242;28;20028;-70
2024/03/17 00:21:12;;;;;;;35.03;22.30;;;;;;;6.07;100.00;133799.63;5066327;28;20457;-71
2024/03/17 00:23:38;;;;;;;33.45;22.02;;;;;;;6.66;100.00;133946.59;5068155;28;20090;-70
2024/03/17 00:26:03;;;;;;;33.20;22.83;;;;;;;6.93;100.00;134041.69;5067165;28;20121;-71
2024/03/17 00:28:28;;;;;;;34.42;22.98;;;;;;;6.56;100.00;133981.31;5067474;28;21340;-71
2024/03/17 00:30:54;;;;;;;33.80;22.23;;;;;;;6.44;100.00;133982.31;5067207;28;20396;-70
2024/03/17 00:33:19;;;;;;;33.72;21.92;;;;;;;7.19;100.00;134142.53;5058135;28;20035;-70
2024/03/17 00:35:45;;;;;;;33.15;22.75;;;;;;;6.13;100.00;133972.22;5066752;28;20410;-70
2024/03/17 00:38:10;;;;;;;38.30;23.55;;;;;;;6.85;100.00;134160.31;5050464;28;20388;-70
2024/03/17 00:40:44;;;;;;;34.38;23.98;;;;;;;6.62;100.00;134128.84;5071079;28;20781;-70
2024/03/17 00:43:11;;;;;;;37.38;23.20;;;;;;;6.71;100.00;134118.53;5069861;28;20040;-70
2024/03/17 00:45:37;;;;;;;32.20;23.05;;;;;;;7.20;100.00;134233.00;5070616;28;20036;-71
2024/03/17 00:48:03;;;;;;;35.60;24.02;;;;;;;6.67;100.00;134169.31;5071030;28;20032;-71
2024/03/17 00:50:28;;;;;;;32.95;23.27;;;;;;;7.25;100.00;134318.34;5070051;28;20043;-70
2024/03/17 00:52:54;;;;;;;35.17;23.85;;;;;;;6.93;100.00;134301.94;5055162;28;20480;-70
2024/03/17 00:55:20;;;;;;;37.97;24.33;;;;;;;6.82;100.00;134305.19;5070309;28;20025;-69
2024/03/17 00:57:46;;;;;;;37.83;23.65;;;;;;;6.57;100.00;134287.03;5057188;28;20040;-71
2024/03/17 01:00:11;;;;;;;36.35;24.05;;;;;;;6.27;100.00;134214.19;5070973;28;20024;-70
2024/03/17 01:02:38;;;;;;;33.90;23.20;;;;;;;6.82;100.00;134327.00;5052226;28;20036;-70
2024/03/17 01:05:06;;;;;;;35.85;23.75;;;;;;;6.95;100.00;134356.38;5060457;28;20399;-70
2024/03/17 01:07:33;;;;;;;37.53;23.48;;;;;;;6.32;100.00;134286.63;5070157;28;20096;-70
2024/03/17 01:10:00;;;;;;;35.83;24.98;;;;;;;6.55;100.00;134345.09;5069146;28;20028;-70
2024/03/17 01:12:26;;;;;;;35.85;24.08;;;;;;;6.25;100.00;134306.53;5052145;28;20032;-69
2024/03/17 01:14:51;;;;;;;36.60;24.85;;;;;;;6.57;100.00;134390.44;5069202;28;20414;-71
2024/03/17 01:17:18;;;;;;;34.03;22.95;;;;;;;7.08;100.00;134440.75;5069936;28;20031;-70
2024/03/17 01:19:44;;;;;;;37.40;24.00;;;;;;;6.84;100.00;134451.44;5070424;28;20029;-69
2024/03/17 01:22:10;;;;;;;37.08;23.90;;;;;;;6.64;100.00;134472.53;5070026;28;20400;-71
2024/03/17 01:24:35;;;;;;;36.20;23.88;;;;;;;6.09;100.00;134357.00;5071185;28;20032;-70
2024/03/17 01:27:01;;;;;;;39.72;25.80;;;;;;;6.65;100.00;134493.81;5051549;28;20410;-70
2024/03/17 01:29:27;;;;;;;36.40;24.25;;;;;;;6.78;100.00;134518.09;5070575;28;20039;-70
2024/03/17 01:31:52;;;;;;;37.88;25.48;;;;;;;6.11;100.00;134348.78;5069683;28;20107;-71
2024/03/17 01:34:21;;;;;;;36.92;24.65;;;;;;;6.84;100.00;134540.72;5051526;28;20461;-70
2024/03/17 01:36:47;;;;;;;37.28;24.52;;;;;;;6.94;100.00;134545.50;5053921;28;20108;-70
2024/03/17 01:39:12;;;;;;;36.15;24.60;;;;;;;7.09;100.00;134580.84;5074936;28;20063;-70
2024/03/17 01:41:39;;;;;;;38.50;25.15;;;;;;;6.52;100.00;134481.09;5070092;28;20034;-70
2024/03/17 01:44:04;;;;;;;36.80;25.10;;;;;;;6.76;100.00;134497.13;5068306;28;20036;-71
2024/03/17 01:46:30;;;;;;;36.45;24.45;;;;;;;6.97;100.00;134629.94;5069687;28;20020;-71
2024/03/17 01:48:56;;;;;;;39.28;25.42;;;;;;;6.63;100.00;134535.22;5069516;28;20021;-70
2024/03/17 01:51:22;;;;;;;38.50;25.42;;;;;;;6.84;100.00;134628.63;5069755;28;20083;-70
2024/03/17 01:53:48;;;;;;;37.05;24.60;;;;;;;7.21;100.00;134665.25;5070100;28;20024;-70
2024/03/17 01:56:16;;;;;;;35.40;23.75;;;;;;;6.94;100.00;134615.53;5068198;28;20056;-69
2024/03/17 01:58:44;;;;;;;34.60;23.08;;;;;;;7.28;100.00;134690.19;5069730;28;20039;-70
2024/03/17 02:01:09;;;;;;;35.97;23.60;;;;;;;7.39;100.00;134730.44;5067672;28;20056;-70
2024/03/17 02:03:35;;;;;;;34.47;24.10;;;;;;;7.11;100.00;134687.47;5070036;28;20070;-71
2024/03/17 02:06:01;;;;;;;36.70;24.35;;;;;;;6.51;100.00;134597.31;5069922;28;20032;-70
2024/03/17 02:08:27;;;;;;;37.05;24.20;;;;;;;6.64;100.00;134574.56;5068776;28;20047;-71
2024/03/17 02:10:54;;;;;;;39.08;24.95;;;;;;;6.79;100.00;134646.78;5069573;28;20483;-71
2024/03/17 02:13:21;;;;;;;36.47;24.35;;;;;;;6.98;100.00;134736.88;5068124;28;20032;-70
2024/03/17 02:15:46;;;;;;;39.13;25.77;;;;;;;6.47;100.00;134590.81;5068049;28;20111;-74
2024/03/17 02:18:12;;;;;;;37.67;25.10;;;;;;;7.17;100.00;134735.34;5061642;28;20119;-70
2024/03/17 02:20:55;;;;;;;38.75;25.33;;;;;;;7.35;100.00;134759.69;5068908;28;20554;-70
2024/03/17 02:23:21;;;;;;;37.17;24.83;;;;;;;7.21;100.00;134777.59;5069494;28;20036;-72
2024/03/17 02:25:47;;;;;;;37.72;24.25;;;;;;;6.26;100.00;134585.50;5069250;28;20035;-71
2024/03/17 02:28:13;;;;;;;35.75;23.85;;;;;;;6.63;100.00;134643.72;5069386;28;20020;-70
2024/03/17 02:30:39;;;;;;;38.47;24.77;;;;;;;7.14;100.00;134791.25;5069090;28;20487;-69
2024/03/17 02:33:04;;;;;;;38.90;25.48;;;;;;;6.44;100.00;134668.13;5069203;28;20510;-71
2024/03/17 02:35:29;;;;;;;35.45;24.77;;;;;;;7.33;100.00;134793.47;5050674;28;20032;-69
2024/03/17 02:37:55;;;;;;;37.67;24.60;;;;;;;6.06;100.00;134649.47;5068865;28;20435;-72
2024/03/17 02:40:20;;;;;;;37.13;24.42;;;;;;;6.67;100.00;134747.16;5069266;28;20112;-69
2024/03/17 02:42:46;;;;;;;37.33;23.73;;;;;;;7.47;100.00;134821.19;5068261;28;20046;-69
2024/03/17 02:45:12;;;;;;;36.03;24.20;;;;;;;6.83;100.00;134760.47;5068420;28;20089;-69
2024/03/17 02:47:38;;;;;;;38.22;24.88;;;;;;;7.28;100.00;134885.41;5069101;28;20032;-69
2024/03/17 02:50:04;;;;;;;37.63;25.10;;;;;;;7.57;100.00;134859.16;5066777;28;20033;-70
2024/03/17 02:52:30;;;;;;;37.70;24.85;;;;;;;7.16;100.00;134911.81;5066364;28;20173;-73
2024/03/17 02:54:56;;;;;;;40.40;25.67;;;;;;;6.77;100.00;134872.97;5069372;28;20050;-69
2024/03/17 02:57:24;;;;;;;38.55;24.92;;;;;;;7.47;100.00;134915.69;5068300;28;20114;-74
2024/03/17 02:59:50;;;;;;;34.05;24.70;;;;;;;7.18;100.00;134916.34;5050641;28;20036;-70
2024/03/17 03:02:15;;;;;;;34.63;24.08;;;;;;;6.86;100.00;134850.03;5049591;28;20465;-70
2024/03/17 03:04:41;;;;;;;37.85;25.33;;;;;;;6.39;100.00;134858.25;5068525;28;20067;-70
2024/03/17 03:07:06;;;;;;;37.03;25.23;;;;;;;6.72;100.00;134836.16;5068541;28;20029;-69
2024/03/17 03:09:32;;;;;;;38.85;25.65;;;;;;;7.40;100.00;134897.28;5054918;28;20541;-69
2024/03/17 03:11:59;;;;;;;37.25;24.67;;;;;;;6.88;100.00;134850.88;5068993;28;20086;-70
2024/03/17 03:14:24;;;;;;;40.97;26.02;;;;;;;6.79;100.00;134795.88;5068740;28;20058;-70
2024/03/17 03:16:50;;;;;;;40.28;26.05;;;;;;;7.24;100.00;134949.22;5050208;28;20173;-70
2024/03/17 03:19:16;;;;;;;41.58;26.92;;;;;;;7.49;100.00;134995.72;5068644;28;20028;-69
2024/03/17 03:21:42;;;;;;;39.85;26.42;;;;;;;6.58;100.00;134915.50;5066780;28;20042;-70
2024/03/17 03:24:07;;;;;;;37.60;24.67;;;;;;;7.16;100.00;134886.28;5068048;28;20024;-70
2024/03/17 03:26:33;;;;;;;35.30;24.70;;;;;;;7.02;100.00;134926.00;5065901;28;20041;-70
2024/03/17 03:28:58;;;;;;;37.15;24.92;;;;;;;7.31;100.00;135004.53;5068230;28;20055;-69
2024/03/17 03:31:24;;;;;;;37.65;23.83;;;;;;;7.66;100.00;135017.56;5067244;28;20479;-71
2024/03/17 03:33:49;;;;;;;38.42;26.48;;;;;;;6.48;100.00;134821.41;5068316;28;20047;-70
2024/03/17 03:36:18;;;;;;;43.60;28.95;;;;;;;7.20;100.00;135002.59;5067907;28;20024;-70
2024/03/17 03:38:44;;;;;;;41.72;28.25;;;;;;;7.07;100.00;134924.59;5067976;28;20039;-70
2024/03/17 03:41:16;;;;;;;40.97;28.70;;;;;;;6.43;100.00;134869.88;5066078;28;20028;-69
2024/03/17 03:43:43;;;;;;;39.22;26.85;;;;;;;6.59;100.00;134847.50;5067289;28;20085;-70
2024/03/17 03:46:08;;;;;;;40.80;28.60;;;;;;;7.61;100.00;135099.59;5066962;28;20059;-69
2024/03/17 03:48:34;;;;;;;41.92;29.23;;;;;;;7.61;100.00;135070.06;5067992;28;20044;-69
2024/03/17 03:51:06;;;;;;;45.58;30.20;;;;;;;7.62;100.00;135120.91;5068456;28;20033;-69
2024/03/17 03:53:33;;;;;;;44.53;30.80;;;;;;;7.58;100.00;135138.78;5067160;28;20039;-72
2024/03/17 03:56:01;;;;;;;41.78;29.85;;;;;;;7.37;100.00;135040.03;5067617;28;20048;-69
2024/03/17 03:58:30;;;;;;;41.70;26.90;;;;;;;7.28;100.00;135032.34;5068241;28;20029;-69
2024/03/17 04:00:56;;;;;;;40.58;27.05;;;;;;;7.79;100.00;135063.78;5068520;28;20028;-69
2024/03/17 04:03:22;;;;;;;42.42;28.50;;;;;;;7.08;100.00;134989.53;5067946;28;20059;-69
2024/03/17 04:05:47;;;;;;;40.95;28.52;;;;;;;7.48;100.00;135165.75;5067851;28;20525;-76
2024/03/17 04:08:13;;;;;;;42.65;28.08;;;;;;;6.91;100.00;134987.84;5064138;28;20029;-72
2024/03/17 04:10:38;;;;;;;40.47;27.67;;;;;;;7.57;100.00;135114.63;5067970;28;20043;-70
2024/03/17 04:13:04;;;;;;;44.08;30.27;;;;;;;7.07;100.00;135071.50;5070330;28;20035;-74
2024/03/17 04:15:29;;;;;;;42.05;29.63;;;;;;;6.80;100.00;135008.78;5071671;28;20111;-75
2024/03/17 04:17:54;;;;;;;41.58;27.30;;;;;;;6.96;100.00;135073.19;5051573;28;20061;-71
2024/03/17 04:20:20;;;;;;;41.90;28.60;;;;;;;6.99;100.00;135152.59;5070819;28;20024;-75
2024/03/17 04:22:48;;;;;;;40.10;26.83;;;;;;;6.90;100.00;135141.22;5069919;28;20028;-71
2024/03/17 04:25:14;;;;;;;39.63;25.38;;;;;;;7.34;100.00;135131.41;5071075;28;20042;-70
2024/03/17 04:27:40;;;;;;;35.03;24.02;;;;;;;6.69;100.00;135043.66;5059829;28;20131;-72
2024/03/17 04:30:06;;;;;;;36.88;25.70;;;;;;;6.69;100.00;135079.38;5073032;28;20557;-72
2024/03/17 04:32:32;;;;;;;40.75;25.35;;;;;;;7.01;100.00;135095.88;5073667;28;20025;-71
2024/03/17 04:34:58;;;;;;;38.17;26.85;;;;;;;7.27;100.00;135179.31;5069774;28;20025;-69
2024/03/17 04:37:24;;;;;;;38.33;25.60;;;;;;;6.98;100.00;135019.03;5068794;28;20036;-69
2024/03/17 04:39:50;;;;;;;40.40;27.40;;;;;;;6.80;100.00;135094.13;5071657;28;20107;-71
2024/03/17 04:42:17;;;;;;;42.15;28.38;;;;;;;7.11;100.00;135264.41;5053032;28;20040;-70
2024/03/17 04:44:44;;;;;;;39.55;27.73;;;;;;;7.31;100.00;135192.41;5068252;28;20040;-72
2024/03/17 04:47:09;;;;;;;40.15;26.70;;;;;;;7.18;100.00;135100.16;5071355;28;20468;-72
2024/03/17 04:49:40;;;;;;;37.05;26.40;;;;;;;7.21;100.00;135126.28;5071504;28;20028;-71
2024/03/17 04:52:08;;;;;;;38.45;25.33;;;;;;;7.45;100.00;135268.75;5052652;28;20056;-77
2024/03/17 04:54:34;;;;;;;37.78;25.35;;;;;;;6.44;100.00;134953.72;5069677;28;20048;-70
2024/03/17 04:57:00;;;;;;;34.40;24.00;;;;;;;7.83;100.00;135259.44;5071113;28;20125;-70
2024/03/17 04:59:26;;;;;;;34.33;24.17;;;;;;;7.94;100.00;135270.53;5071041;28;20032;-70
2024/03/17 05:01:52;;;;;;;37.53;25.30;;;;;;;7.16;100.00;135135.34;5070482;28;20032;-71
2024/03/17 05:04:18;;;;;;;44.28;28.02;;;;;;;7.82;100.00;135218.84;5070258;28;20391;-71
2024/03/17 05:06:46;;;;;;;38.70;26.33;;;;;;;7.76;100.00;135294.66;5070399;28;20071;-70
2024/03/17 05:09:18;;;;;;;40.25;26.33;;;;;;;7.75;100.00;135357.41;5069325;28;20418;-69
2024/03/17 05:11:44;;;;;;;40.33;27.38;;;;;;;7.54;100.00;135290.66;5068929;28;20103;-72
2024/03/17 05:14:10;;;;;;;41.25;28.33;;;;;;;7.98;100.00;135328.19;5070041;28;20066;-73
2024/03/17 05:16:35;;;;;;;42.28;28.27;;;;;;;7.46;100.00;135203.50;5070395;28;20051;-73
2024/03/17 05:19:01;;;;;;;44.58;29.95;;;;;;;8.04;100.00;135317.41;5052173;28;20036;-72
2024/03/17 05:21:29;;;;;;;40.28;27.90;;;;;;;7.64;100.00;135203.50;5057001;28;20036;-72
2024/03/17 05:23:55;;;;;;;39.72;28.60;;;;;;;8.01;100.00;135341.25;5070098;28;20036;-71
2024/03/17 05:26:21;;;;;;;42.03;29.48;;;;;;;7.64;100.00;135241.84;5069419;28;20031;-70
2024/03/17 05:28:46;;;;;;;42.45;27.98;;;;;;;8.43;100.00;135339.56;5051631;28;20035;-71
2024/03/17 05:31:15;;;;;;;43.10;29.75;;;;;;;8.48;100.00;135432.78;5070184;28;20124;-70
2024/03/17 05:33:40;;;;;;;41.10;28.05;;;;;;;8.30;100.00;135307.44;5068952;28;20063;-71
2024/03/17 05:36:06;;;;;;;39.97;28.63;;;;;;;8.40;100.00;135303.44;5051592;28;20135;-71
2024/03/17 05:38:31;;;;;;;40.20;27.95;;;;;;;8.79;100.00;135317.84;5051958;28;20502;-71
2024/03/17 05:41:02;;;;;;;39.10;27.98;;;;;;;9.55;100.00;135495.63;5069318;28;20074;-71
2024/03/17 05:43:29;;;;;;;38.80;27.95;;;;;;;9.20;100.00;135495.53;5069797;28;20032;-72
2024/03/17 05:45:57;;;;;;;39.63;27.77;;;;;;;9.77;100.00;135543.34;5068336;28;20111;-72
2024/03/17 05:48:24;;;;;;;38.05;27.17;;;;;;;9.29;100.00;135387.84;5051884;28;20037;-70
2024/03/17 05:50:51;;;;;;;38.10;27.33;;;;;;;10.24;100.00;135589.81;5050336;28;20490;-71
2024/03/17 05:53:17;;;;;;;37.65;27.67;;;;;;;10.03;100.00;135488.16;5069055;28;20082;-71
2024/03/17 05:55:44;;;;;;;44.45;30.17;;;;;;;9.73;100.00;135566.19;5068112;28;20071;-71
2024/03/17 05:58:09;;;;;;;58.58;40.10;;;;;;;10.01;100.00;135654.38;5067248;28;20028;-71
2024/03/17 06:00:36;;;;;;;57.95;38.50;;;;;;;10.22;100.00;135727.88;5069294;28;20036;-72
2024/03/17 06:03:02;;;;;;;55.85;37.70;;;;;;;10.56;100.00;135710.22;5068523;28;20036;-71
2024/03/17 06:05:31;;;;;;;43.35;29.67;;;;;;;9.96;100.00;135741.63;5067655;28;20040;-71
2024/03/17 06:07:57;;;;;;;38.63;27.83;;;;;;;11.25;100.00;135878.97;5050075;28;20039;-72
2024/03/17 06:10:24;;;;;;;39.35;26.83;;;;;;;11.03;100.00;135994.47;5067650;28;20044;-73
2024/03/17 06:12:51;;;;;;;34.58;24.40;;;;;;;10.09;100.00;135938.00;5066071;28;20455;-74
2024/03/17 06:15:17;;;;;;;38.03;26.73;;;;;;;9.73;100.00;135918.91;5068457;28;20052;-73
2024/03/17 06:17:43;;;;;;;38.83;27.48;;;;;;;9.94;100.00;135869.34;5065845;28;20495;-72
2024/03/17 06:20:13;;;;;;;35.17;25.65;;;;;;;11.06;100.00;136111.84;5067898;28;20032;-72
2024/03/17 06:22:39;;;;;;;37.65;26.02;;;;;;;11.01;100.00;136143.00;5068979;28;20036;-71
2024/03/17 06:25:06;;;;;;;32.47;23.48;;;;;;;10.68;100.00;136140.75;5049865;28;20029;-71
2024/03/17 06:27:33;;;;;;;33.45;23.90;;;;;;;10.96;100.00;136086.47;5050624;28;20071;-73
2024/03/17 06:30:00;;;;;;;31.77;24.30;;;;;;;11.81;100.00;136216.34;5049703;28;20106;-72
2024/03/17 06:32:26;;;;;;;31.17;23.42;;;;;;;10.65;100.00;136036.34;5067961;28;20024;-73
2024/03/17 06:34:51;;;;;;;33.97;24.15;;;;;;;11.53;100.00;136292.47;5033045;28;20406;-71
2024/03/17 06:37:17;;;;;;;33.55;23.55;;;;;;;11.15;100.00;136266.03;5049366;28;20046;-70
2024/03/17 06:39:45;;;;;;;32.53;23.50;;;;;;;10.59;100.00;136139.66;5048672;28;20033;-72
2024/03/17 06:42:11;;;;;;;33.25;23.60;;;;;;;10.48;100.00;136131.06;5066233;28;20036;-73
2024/03/17 06:44:37;;;;;;;35.03;24.42;;;;;;;10.18;100.00;136001.06;5067948;28;20376;-72
2024/03/17 06:47:02;;;;;;;35.28;25.73;;;;;;;11.29;100.00;136134.84;5067935;28;20038;-73
2024/03/17 06:49:28;;;;;;;35.42;25.48;;;;;;;11.31;100.00;136116.25;5050228;28;20042;-73
2024/03/17 06:51:53;;;;;;;33.70;24.80;;;;;;;12.17;100.00;136249.53;5067283;28;20495;-72
2024/03/17 06:54:19;;;;;;;31.08;24.23;;;;;;;12.55;100.00;136291.28;5048794;28;20720;-73
2024/03/17 06:56:51;;;;;;;35.22;25.02;;;;;;;12.08;100.00;135818.22;5119709;27;20382;-73
2024/03/17 06:59:17;;;;;;;35.67;24.90;;;;;;;12.60;100.00;135393.16;5085022;28;20102;-73
2024/03/17 07:01:44;;;;;;;33.78;24.42;;;;;;;11.96;100.00;135357.47;5083858;28;21291;-71
2024/03/17 07:04:10;;;;;;;31.80;24.10;;;;;;;11.66;100.00;135532.44;5082872;28;20032;-72
2024/03/17 07:06:36;;;;;;;33.53;25.02;;;;;;;11.59;100.00;135530.81;5084071;28;20410;-70
2024/03/17 07:09:02;;;;;;;33.08;24.80;;;;;;;12.29;100.00;135777.31;5100289;28;20127;-71
2024/03/17 07:11:28;;;;;;;31.48;23.10;;;;;;;12.42;100.00;135873.78;5084778;28;20111;-71
2024/03/17 07:13:53;;;;;;;35.22;22.83;;;;;;;12.26;100.00;135887.81;5083826;28;20032;-70
2024/03/17 07:16:21;;;;;;;33.03;22.80;;;;;;;13.49;100.00;136051.59;5084353;28;20036;-70
2024/03/17 07:18:46;;;;;;;31.35;23.10;;;;;;;13.78;100.00;136127.91;5084173;28;20032;-72
2024/03/17 07:21:12;;;;;;;32.22;22.67;;;;;;;13.03;100.00;135910.88;5085969;28;20024;-73
2024/03/17 07:23:38;;;;;;;28.88;22.08;;;;;;;13.88;100.00;136017.84;5089834;28;20056;-73
2024/03/17 07:26:07;;;;;;;30.80;22.70;;;;;;;12.74;100.00;135503.31;5086679;28;20036;-78
2024/03/17 07:28:32;;;;;;;30.67;23.90;;;;;;;13.25;100.00;134411.03;5098682;28;20020;-72
2024/03/17 07:31:02;;;;;;;30.05;22.30;;;;;;;13.13;100.00;133764.41;5093269;28;20031;-72
2024/03/17 07:33:28;;;;;;;32.63;24.10;;;;;;;12.83;100.00;133221.88;5098213;28;20036;-74
2024/03/17 07:35:56;;;;;;;33.45;22.45;;;;;;;12.79;100.00;132755.69;5087729;28;20098;-73
2024/03/17 07:38:27;;;;;;;31.45;23.45;;;;;;;13.87;100.00;132802.44;5083610;28;20028;-71
2024/03/17 07:41:03;;;;;;;32.00;23.23;;;;;;;13.39;100.00;131733.19;5082584;28;20032;-71
2024/03/17 07:43:30;;;;;;;32.55;23.45;;;;;;;12.38;100.00;130686.38;5082520;28;20024;-70
2024/03/17 07:46:06;;;;;;;29.25;23.25;;;;;;;12.87;100.00;130644.22;5082814;28;20024;-72
2024/03/17 07:48:36;;;;;;;29.20;21.92;;;;;;;13.81;100.00;130742.78;5084637;28;20082;-73
2024/03/17 07:51:09;;;;;;;31.23;23.85;;;;;;;13.35;100.00;130152.97;5083126;28;20031;-70
2024/03/17 07:53:39;;;;;;;34.00;24.05;;;;;;;13.79;100.00;129465.22;5083281;28;20058;-69
2024/03/17 07:56:09;;;;;;;33.95;24.17;;;;;;;13.58;100.00;128836.63;5083740;28;20055;-76
2024/03/17 07:58:37;;;;;;;30.23;23.00;;;;;;;13.87;100.00;128249.72;5082987;28;20059;-69
2024/03/17 08:01:04;;;;;;;33.53;24.73;;;;;;;14.11;100.00;127649.09;5083097;28;20028;-68
2024/03/17 08:03:32;;;;;;;30.13;24.08;;;;;;;15.20;100.00;127388.81;5083011;28;20032;-71
2024/03/17 08:06:02;;;;;;;34.90;24.20;;;;;;;14.40;100.00;126527.72;5081099;28;20111;-71
2024/03/17 08:08:28;;;;;;;38.13;25.42;;;;;;;14.29;100.00;125913.41;5066881;28;20392;-71
2024/03/17 08:10:54;;;;;;;36.17;27.75;;;;;;;14.62;100.00;125946.63;5068659;28;20049;-71
2024/03/17 08:13:21;;;;;;;34.13;25.10;;;;;;;14.53;100.00;125454.59;5084966;28;20071;-69
2024/03/17 08:15:54;;;;;;;36.72;22.75;;;;;;;14.10;100.00;125282.22;5068848;28;20036;-69
2024/03/17 08:18:20;;;;;;;30.48;23.70;;;;;;;13.89;100.00;124531.50;5067239;28;20044;-71
2024/03/17 08:20:46;;;;;;;33.40;23.42;;;;;;;14.90;100.00;124694.50;5068690;28;20028;-69
2024/03/17 08:23:12;;;;;;;28.38;22.42;;;;;;;14.17;100.00;124116.41;5069203;28;20048;-71
2024/03/17 08:25:38;;;;;;;32.50;23.00;;;;;;;15.26;100.00;124378.31;5068801;28;20476;-70
2024/03/17 08:28:03;;;;;;;30.85;23.92;;;;;;;15.35;100.00;125740.25;5067656;28;20029;-69
2024/03/17 08:30:30;;;;;;;29.80;23.85;;;;;;;15.25;100.00;125316.81;5084152;28;20032;-71
2024/03/17 08:32:56;;;;;;;29.67;23.70;;;;;;;14.17;100.00;124672.56;5067675;28;20056;-73
2024/03/17 08:35:21;;;;;;;29.83;23.90;;;;;;;14.92;100.00;124681.66;5070080;28;20162;-70
2024/03/17 08:37:47;;;;;;;30.25;23.75;;;;;;;14.93;100.00;124491.94;5068749;28;20116;-70
2024/03/17 08:40:13;;;;;;;32.30;23.83;;;;;;;14.20;100.00;123741.63;5070172;28;20040;-70
2024/03/17 08:42:39;;;;;;;31.65;23.35;;;;;;;14.94;100.00;123907.28;5070286;28;20032;-71
2024/03/17 08:45:05;;;;;;;29.70;23.10;;;;;;;15.48;100.00;123138.16;5070212;28;20410;-72
2024/03/17 08:47:30;;;;;;;27.88;22.77;;;;;;;15.27;100.00;122704.16;5070926;28;20171;-71
2024/03/17 08:49:56;;;;;;;29.40;23.88;;;;;;;14.27;100.00;121970.69;5069882;28;20475;-71
2024/03/17 08:52:21;;;;;;;26.67;22.27;;;;;;;15.21;100.00;122256.25;5070210;28;20024;-71
2024/03/17 08:54:47;;;;;;;28.73;23.27;;;;;;;15.60;100.00;122755.19;5067963;28;20052;-71
2024/03/17 08:57:13;;;;;;;31.33;22.70;;;;;;;15.05;100.00;121546.06;5069702;28;20487;-70
2024/03/17 08:59:39;;;;;;;26.48;21.77;;;;;;;15.56;100.00;121394.09;5069626;28;20037;-70
2024/03/17 09:02:06;;;;;;;31.50;23.45;;;;;;;15.71;100.00;121045.88;5069363;28;20035;-71
2024/03/17 09:04:31;;;;;;;25.45;20.23;;;;;;;15.30;100.00;120808.03;5069946;28;20063;-69
2024/03/17 09:06:57;;;;;;;29.00;22.25;;;;;;;15.87;100.00;120879.47;5069586;28;20082;-69
2024/03/17 09:09:23;;;;;;;28.63;22.75;;;;;;;15.31;100.00;119021.13;5068917;28;20051;-72
2024/03/17 09:11:48;;;;;;;26.33;21.60;;;;;;;15.96;100.00;118791.59;5069400;28;20036;-71
2024/03/17 09:14:14;;;;;;;30.55;21.38;;;;;;;15.90;100.00;118330.22;5085007;28;20415;-72
2024/03/17 09:16:39;;;;;;;29.13;22.05;;;;;;;16.27;100.00;118715.16;5068394;28;20036;-74
2024/03/17 09:19:05;;;;;;;24.60;21.40;;;;;;;16.41;100.00;118044.69;5067351;28;20115;-73
2024/03/17 09:21:30;;;;;;;25.75;19.73;;;;;;;16.20;100.00;117338.22;5067657;28;20020;-75
2024/03/17 09:23:56;;;;;;;24.67;21.73;;;;;;;15.78;100.00;116725.59;5068664;28;20025;-69
2024/03/17 09:26:22;;;;;;;27.98;22.30;;;;;;;15.33;100.00;116636.56;5068078;28;20021;-69
2024/03/17 09:28:47;;;;;;;25.10;21.05;;;;;;;16.31;100.00;116739.91;5083772;28;20028;-70
2024/03/17 09:31:13;;;;;;;22.55;18.52;;;;;;;16.71;100.00;115133.31;5066794;28;20472;-69
2024/03/17 09:33:39;;;;;;;23.70;19.77;;;;;;;16.37;100.00;114722.91;5066682;28;20032;-71
2024/03/17 09:36:10;;;;;;;22.40;18.50;;;;;;;16.41;100.00;116581.41;5065163;28;20097;-70
2024/03/17 09:38:37;;;;;;;23.85;16.75;;;;;;;15.80;100.00;116013.41;5067957;28;20024;-70
2024/03/17 09:41:03;;;;;;;22.02;17.63;;;;;;;17.10;100.00;115662.13;5067848;28;20039;-70
2024/03/17 09:43:38;;;;;;;19.48;15.23;;;;;;;15.59;100.00;114066.59;5067592;28;20426;-72
2024/03/17 09:46:05;;;;;;;17.92;15.73;;;;;;;14.36;100.00;113546.66;5078587;28;20098;-71
2024/03/17 09:48:31;;;;;;;20.02;16.10;;;;;;;16.17;100.00;113749.78;5067866;28;20070;-70
2024/03/17 09:50:59;;;;;;;19.33;16.63;;;;;;;16.12;100.00;112322.63;5082243;28;20044;-71
2024/03/17 09:53:33;;;;;;;20.00;16.55;;;;;;;16.65;100.00;111653.03;5066787;28;20025;-72
2024/03/17 09:56:08;;;;;;;21.15;16.17;;;;;;;15.84;100.00;110739.84;5067897;28;20044;-69
2024/03/17 09:58:34;;;;;;;21.52;17.75;;;;;;;17.55;100.00;111109.72;5063198;28;20041;-70
2024/03/17 10:00:59;;;;;;;20.40;17.23;;;;;;;15.46;100.00;111014.31;5066343;28;20089;-69
2024/03/17 10:03:58;;;;;;;20.27;16.27;;;;;;;16.50;100.00;111451.75;5067641;28;20491;-72
2024/03/17 10:06:28;;;;;;;19.75;15.73;;;;;;;14.81;100.00;111131.50;5082540;28;20024;-73
2024/03/17 10:08:55;;;;;;;22.40;17.33;;;;;;;16.50;100.00;111436.31;5068224;28;20028;-69
2024/03/17 10:11:31;;;;;;;20.42;17.85;;;;;;;16.04;100.00;110924.94;5068352;28;20028;-69
2024/03/17 10:14:03;;;;;;;19.38;16.80;;;;;;;17.50;100.00;110958.69;5064652;28;20029;-70
2024/03/17 10:16:29;;;;;;;22.67;19.00;;;;;;;14.80;100.00;110484.31;5065488;28;20036;-69
2024/03/17 10:19:14;;;;;;;22.73;19.40;;;;;;;15.51;100.00;110666.25;5067721;28;20036;-69
2024/03/17 10:21:47;;;;;;;23.17;19.10;;;;;;;17.31;100.00;111058.63;5082667;28;20032;-69
2024/03/17 10:24:19;;;;;;;22.73;18.55;;;;;;;16.72;100.00;110467.41;5063461;28;20091;-71
2024/03/17 10:26:47;;;;;;;20.73;17.33;;;;;;;16.91;100.00;109197.31;5067468;28;20477;-68
2024/03/17 10:29:35;;;;;;;18.80;16.80;;;;;;;17.70;100.00;109184.06;5068552;28;20036;-69
2024/03/17 10:32:13;;;;;;;19.98;17.02;;;;;;;17.09;100.00;107851.22;5063311;28;20509;-69
2024/03/17 10:34:38;;;;;;;19.10;16.70;;;;;;;16.97;100.00;107557.75;5066092;28;20039;-70
2024/03/17 10:37:20;;;;;;;19.27;16.48;;;;;;;18.07;100.00;107076.78;5067846;28;20037;-70
2024/03/17 10:39:47;;;;;;;18.30;16.02;;;;;;;17.84;100.00;106503.38;5067740;28;20143;-69
2024/03/17 10:42:17;;;;;;;18.90;16.30;;;;;;;16.53;100.00;105871.03;5066418;28;20060;-70
2024/03/17 10:44:45;;;;;;;17.75;15.68;;;;;;;17.08;100.00;105759.25;5065283;28;20475;-71
2024/03/17 10:47:21;;;;;;;18.38;16.45;;;;;;;15.49;100.00;105097.25;5066031;28;20418;-70
2024/03/17 10:49:49;;;;;;;18.27;15.85;;;;;;;16.72;100.00;105325.81;5067587;28;20040;-69
2024/03/17 10:52:18;;;;;;;17.40;15.35;;;;;;;17.56;100.00;105313.03;5065097;28;20063;-73
2024/03/17 10:54:49;;;;;;;17.15;15.35;;;;;;;17.44;100.00;105038.88;5066506;28;20048;-70
2024/03/17 10:57:35;;;;;;;22.83;17.23;;;;;;;18.02;100.00;104831.63;5060365;28;20040;-70
2024/03/17 11:00:04;;;;;;;18.45;15.13;;;;;;;17.52;100.00;104469.31;5059515;28;20037;-66
2024/03/17 11:02:32;;;;;;;16.73;14.05;;;;;;;15.63;100.00;104081.44;5081923;28;20032;-66
2024/03/17 11:05:25;;;;;;;38.17;26.52;;;;;;;18.37;100.00;104247.09;5060127;28;21418;-72
2024/03/17 11:07:54;;;;;;;21.92;16.15;;;;;;;17.40;100.00;103835.16;5056117;28;20551;-67